sensor_id;sensor_type;location;lat;lon;timestamp;P1;durP1;ratioP1;P2;durP2;ratioP2
33421;SDS011;19763;55.798;37.782;2023-05-15T00:02:21;7.35;;;5.40;;
33421;SDS011;19763;55.798;37.782;2023-05-15T00:04:46;6.97;;;5.82;;
33421;SDS011;19763;55.798;37.782;2023-05-15T00:07:12;10.32;;;5.88;;
33421;SDS011;19763;55.798;37.782;2023-05-15T00:09:38;6.72;;;5.40;;
33421;SDS011;19763;55.798;37.782;2023-05-15T00:12:03;6.88;;;5.93;;
33421;SDS011;19763;55.798;37.782;2023-05-15T00:14:29;7.00;;;5.80;;
33421;SDS011;19763;55.798;37.782;2023-05-15T00:16:55;8.32;;;5.93;;
33421;SDS011;19763;55.798;37.782;2023-05-15T00:19:20;8.05;;;5.68;;
33421;SDS011;19763;55.798;37.782;2023-05-15T00:21:46;8.27;;;5.53;;
33421;SDS011;19763;55.798;37.782;2023-05-15T00:24:12;8.18;;;5.80;;
33421;SDS011;19763;55.798;37.782;2023-05-15T00:26:37;8.15;;;6.22;;
33421;SDS011;19763;55.798;37.782;2023-05-15T00:29:03;8.02;;;5.65;;
33421;SDS011;19763;55.798;37.782;2023-05-15T00:31:28;9.90;;;6.13;;
33421;SDS011;19763;55.798;37.782;2023-05-15T00:33:54;6.32;;;5.72;;
33421;SDS011;19763;55.798;37.782;2023-05-15T00:36:20;8.45;;;6.07;;
33421;SDS011;19763;55.798;37.782;2023-05-15T00:38:46;7.60;;;6.07;;
33421;SDS011;19763;55.798;37.782;2023-05-15T00:41:12;8.75;;;5.68;;
33421;SDS011;19763;55.798;37.782;2023-05-15T00:43:39;7.15;;;5.80;;
33421;SDS011;19763;55.798;37.782;2023-05-15T00:46:06;8.55;;;5.53;;
33421;SDS011;19763;55.798;37.782;2023-05-15T00:48:32;7.75;;;5.93;;
33421;SDS011;19763;55.798;37.782;2023-05-15T00:50:58;8.55;;;5.90;;
33421;SDS011;19763;55.798;37.782;2023-05-15T00:53:25;13.77;;;6.20;;
33421;SDS011;19763;55.798;37.782;2023-05-15T00:55:53;6.22;;;5.65;;
33421;SDS011;19763;55.798;37.782;2023-05-15T00:58:21;9.45;;;5.70;;
33421;SDS011;19763;55.798;37.782;2023-05-15T01:00:48;8.73;;;6.07;;
33421;SDS011;19763;55.798;37.782;2023-05-15T01:03:15;9.55;;;6.20;;
33421;SDS011;19763;55.798;37.782;2023-05-15T01:05:41;6.65;;;5.65;;
33421;SDS011;19763;55.798;37.782;2023-05-15T01:08:22;7.43;;;5.47;;
33421;SDS011;19763;55.798;37.782;2023-05-15T01:10:51;7.63;;;5.70;;
33421;SDS011;19763;55.798;37.782;2023-05-15T01:13:22;6.55;;;5.47;;
33421;SDS011;19763;55.798;37.782;2023-05-15T01:15:48;9.40;;;5.85;;
33421;SDS011;19763;55.798;37.782;2023-05-15T01:18:14;8.52;;;6.07;;
33421;SDS011;19763;55.798;37.782;2023-05-15T01:29:32;8.35;;;6.38;;
33421;SDS011;19763;55.798;37.782;2023-05-15T01:32:01;9.50;;;6.60;;
33421;SDS011;19763;55.798;37.782;2023-05-15T01:34:47;8.13;;;5.80;;
33421;SDS011;19763;55.798;37.782;2023-05-15T01:37:23;8.25;;;6.20;;
33421;SDS011;19763;55.798;37.782;2023-05-15T01:39:52;6.90;;;5.97;;
33421;SDS011;19763;55.798;37.782;2023-05-15T01:42:22;8.55;;;5.80;;
33421;SDS011;19763;55.798;37.782;2023-05-15T01:44:54;7.72;;;5.68;;
33421;SDS011;19763;55.798;37.782;2023-05-15T01:47:25;9.27;;;6.80;;
33421;SDS011;19763;55.798;37.782;2023-05-15T01:50:12;9.23;;;6.07;;
33421;SDS011;19763;55.798;37.782;2023-05-15T01:52:45;7.30;;;5.50;;
33421;SDS011;19763;55.798;37.782;2023-05-15T01:55:14;8.20;;;5.93;;
33421;SDS011;19763;55.798;37.782;2023-05-15T01:57:41;7.97;;;6.47;;
33421;SDS011;19763;55.798;37.782;2023-05-15T02:00:07;8.88;;;5.97;;
33421;SDS011;19763;55.798;37.782;2023-05-15T02:02:35;8.00;;;5.88;;
33421;SDS011;19763;55.798;37.782;2023-05-15T02:05:02;7.63;;;5.55;;
33421;SDS011;19763;55.798;37.782;2023-05-15T02:07:29;9.63;;;5.68;;
33421;SDS011;19763;55.798;37.782;2023-05-15T02:09:55;8.85;;;5.93;;
33421;SDS011;19763;55.798;37.782;2023-05-15T02:12:23;7.45;;;6.05;;
33421;SDS011;19763;55.798;37.782;2023-05-15T02:14:50;7.70;;;5.85;;
33421;SDS011;19763;55.798;37.782;2023-05-15T02:17:16;9.00;;;6.05;;
33421;SDS011;19763;55.798;37.782;2023-05-15T02:19:42;9.07;;;6.63;;
33421;SDS011;19763;55.798;37.782;2023-05-15T02:22:08;9.35;;;6.13;;
33421;SDS011;19763;55.798;37.782;2023-05-15T02:24:34;8.35;;;5.97;;
33421;SDS011;19763;55.798;37.782;2023-05-15T02:30:02;10.90;;;6.07;;
33421;SDS011;19763;55.798;37.782;2023-05-15T02:37:55;7.82;;;5.65;;
33421;SDS011;19763;55.798;37.782;2023-05-15T02:40:24;8.10;;;5.95;;
33421;SDS011;19763;55.798;37.782;2023-05-15T02:42:52;10.65;;;6.57;;
33421;SDS011;19763;55.798;37.782;2023-05-15T02:45:19;9.88;;;5.80;;
33421;SDS011;19763;55.798;37.782;2023-05-15T02:47:46;13.63;;;6.22;;
33421;SDS011;19763;55.798;37.782;2023-05-15T02:50:14;11.38;;;7.38;;
33421;SDS011;19763;55.798;37.782;2023-05-15T02:52:40;8.02;;;6.78;;
33421;SDS011;19763;55.798;37.782;2023-05-15T02:55:06;8.80;;;6.00;;
33421;SDS011;19763;55.798;37.782;2023-05-15T02:57:32;10.55;;;5.45;;
33421;SDS011;19763;55.798;37.782;2023-05-15T02:59:58;9.55;;;5.03;;
33421;SDS011;19763;55.798;37.782;2023-05-15T03:02:24;10.32;;;5.65;;
33421;SDS011;19763;55.798;37.782;2023-05-15T03:04:49;8.43;;;5.07;;
33421;SDS011;19763;55.798;37.782;2023-05-15T03:07:15;10.00;;;5.53;;
33421;SDS011;19763;55.798;37.782;2023-05-15T03:09:40;6.85;;;5.07;;
33421;SDS011;19763;55.798;37.782;2023-05-15T03:12:06;9.40;;;4.63;;
33421;SDS011;19763;55.798;37.782;2023-05-15T03:14:34;7.10;;;4.20;;
33421;SDS011;19763;55.798;37.782;2023-05-15T03:17:00;10.10;;;4.70;;
33421;SDS011;19763;55.798;37.782;2023-05-15T03:19:26;6.25;;;5.03;;
33421;SDS011;19763;55.798;37.782;2023-05-15T03:21:51;6.82;;;4.18;;
33421;SDS011;19763;55.798;37.782;2023-05-15T03:24:17;7.28;;;4.43;;
33421;SDS011;19763;55.798;37.782;2023-05-15T03:26:42;5.72;;;4.53;;
33421;SDS011;19763;55.798;37.782;2023-05-15T03:29:09;7.53;;;4.75;;
33421;SDS011;19763;55.798;37.782;2023-05-15T03:31:35;6.47;;;4.32;;
33421;SDS011;19763;55.798;37.782;2023-05-15T03:34:00;5.00;;;4.30;;
33421;SDS011;19763;55.798;37.782;2023-05-15T03:36:26;6.32;;;4.38;;
33421;SDS011;19763;55.798;37.782;2023-05-15T03:38:52;5.45;;;3.67;;
33421;SDS011;19763;55.798;37.782;2023-05-15T03:41:17;7.72;;;3.67;;
33421;SDS011;19763;55.798;37.782;2023-05-15T03:43:43;5.60;;;3.92;;
33421;SDS011;19763;55.798;37.782;2023-05-15T03:46:08;6.00;;;4.25;;
33421;SDS011;19763;55.798;37.782;2023-05-15T03:48:34;6.05;;;4.07;;
33421;SDS011;19763;55.798;37.782;2023-05-15T03:50:59;6.95;;;4.45;;
33421;SDS011;19763;55.798;37.782;2023-05-15T03:53:25;5.13;;;3.90;;
33421;SDS011;19763;55.798;37.782;2023-05-15T03:55:50;5.78;;;3.85;;
33421;SDS011;19763;55.798;37.782;2023-05-15T03:58:16;6.90;;;4.13;;
33421;SDS011;19763;55.798;37.782;2023-05-15T04:00:42;6.70;;;3.42;;
33421;SDS011;19763;55.798;37.782;2023-05-15T04:03:08;6.00;;;3.55;;
33421;SDS011;19763;55.798;37.782;2023-05-15T04:05:33;6.07;;;3.83;;
33421;SDS011;19763;55.798;37.782;2023-05-15T04:07:59;6.38;;;4.35;;
33421;SDS011;19763;55.798;37.782;2023-05-15T04:10:25;6.25;;;4.13;;
33421;SDS011;19763;55.798;37.782;2023-05-15T04:12:51;6.82;;;4.32;;
33421;SDS011;19763;55.798;37.782;2023-05-15T04:15:18;10.85;;;5.68;;
33421;SDS011;19763;55.798;37.782;2023-05-15T04:17:46;6.13;;;3.17;;
33421;SDS011;19763;55.798;37.782;2023-05-15T04:20:13;8.25;;;3.65;;
33421;SDS011;19763;55.798;37.782;2023-05-15T04:22:40;6.00;;;3.90;;
33421;SDS011;19763;55.798;37.782;2023-05-15T04:25:06;7.07;;;4.03;;
33421;SDS011;19763;55.798;37.782;2023-05-15T04:27:33;4.15;;;2.67;;
33421;SDS011;19763;55.798;37.782;2023-05-15T04:30:00;5.85;;;3.17;;
33421;SDS011;19763;55.798;37.782;2023-05-15T04:32:26;6.35;;;3.17;;
33421;SDS011;19763;55.798;37.782;2023-05-15T04:34:52;4.78;;;3.33;;
33421;SDS011;19763;55.798;37.782;2023-05-15T04:37:18;5.22;;;3.08;;
33421;SDS011;19763;55.798;37.782;2023-05-15T04:39:43;4.22;;;2.63;;
33421;SDS011;19763;55.798;37.782;2023-05-15T04:42:09;7.18;;;3.30;;
33421;SDS011;19763;55.798;37.782;2023-05-15T04:44:34;4.05;;;2.85;;
33421;SDS011;19763;55.798;37.782;2023-05-15T04:47:00;4.35;;;2.80;;
33421;SDS011;19763;55.798;37.782;2023-05-15T04:49:26;7.57;;;2.97;;
33421;SDS011;19763;55.798;37.782;2023-05-15T04:51:52;3.58;;;2.30;;
33421;SDS011;19763;55.798;37.782;2023-05-15T04:54:17;4.82;;;2.65;;
33421;SDS011;19763;55.798;37.782;2023-05-15T04:56:44;4.50;;;2.33;;
33421;SDS011;19763;55.798;37.782;2023-05-15T04:59:09;6.47;;;2.45;;
33421;SDS011;19763;55.798;37.782;2023-05-15T05:01:35;6.78;;;2.88;;
33421;SDS011;19763;55.798;37.782;2023-05-15T05:04:01;4.20;;;2.20;;
33421;SDS011;19763;55.798;37.782;2023-05-15T05:06:27;2.88;;;2.13;;
33421;SDS011;19763;55.798;37.782;2023-05-15T05:08:52;12.57;;;2.63;;
33421;SDS011;19763;55.798;37.782;2023-05-15T05:11:18;7.32;;;2.28;;
33421;SDS011;19763;55.798;37.782;2023-05-15T05:13:43;5.50;;;2.17;;
33421;SDS011;19763;55.798;37.782;2023-05-15T05:16:09;2.97;;;1.80;;
33421;SDS011;19763;55.798;37.782;2023-05-15T05:18:35;3.05;;;1.85;;
33421;SDS011;19763;55.798;37.782;2023-05-15T05:21:02;3.08;;;2.03;;
33421;SDS011;19763;55.798;37.782;2023-05-15T05:23:28;8.77;;;2.22;;
33421;SDS011;19763;55.798;37.782;2023-05-15T05:25:54;2.00;;;1.80;;
33421;SDS011;19763;55.798;37.782;2023-05-15T05:28:20;1.50;;;1.40;;
33421;SDS011;19763;55.798;37.782;2023-05-15T05:30:46;2.25;;;1.90;;
33421;SDS011;19763;55.798;37.782;2023-05-15T05:33:13;3.40;;;1.58;;
33421;SDS011;19763;55.798;37.782;2023-05-15T05:35:39;3.00;;;1.83;;
33421;SDS011;19763;55.798;37.782;2023-05-15T05:38:05;2.58;;;2.10;;
33421;SDS011;19763;55.798;37.782;2023-05-15T05:40:31;2.80;;;1.58;;
33421;SDS011;19763;55.798;37.782;2023-05-15T05:43:00;1.50;;;1.40;;
33421;SDS011;19763;55.798;37.782;2023-05-15T05:45:26;3.00;;;1.48;;
33421;SDS011;19763;55.798;37.782;2023-05-15T05:47:53;1.40;;;1.30;;
33421;SDS011;19763;55.798;37.782;2023-05-15T05:50:20;4.10;;;1.45;;
33421;SDS011;19763;55.798;37.782;2023-05-15T05:52:46;4.13;;;1.48;;
33421;SDS011;19763;55.798;37.782;2023-05-15T05:55:11;1.60;;;1.45;;
33421;SDS011;19763;55.798;37.782;2023-05-15T05:57:37;4.45;;;1.50;;
33421;SDS011;19763;55.798;37.782;2023-05-15T06:00:02;1.83;;;1.60;;
33421;SDS011;19763;55.798;37.782;2023-05-15T06:02:32;2.15;;;1.38;;
33421;SDS011;19763;55.798;37.782;2023-05-15T06:04:58;2.78;;;1.40;;
33421;SDS011;19763;55.798;37.782;2023-05-15T06:07:24;3.22;;;1.70;;
33421;SDS011;19763;55.798;37.782;2023-05-15T06:09:49;4.03;;;1.25;;
33421;SDS011;19763;55.798;37.782;2023-05-15T06:12:15;1.88;;;1.35;;
33421;SDS011;19763;55.798;37.782;2023-05-15T06:14:41;3.15;;;1.70;;
33421;SDS011;19763;55.798;37.782;2023-05-15T06:17:06;1.38;;;1.27;;
33421;SDS011;19763;55.798;37.782;2023-05-15T06:19:32;2.95;;;1.25;;
33421;SDS011;19763;55.798;37.782;2023-05-15T06:21:57;4.10;;;1.30;;
33421;SDS011;19763;55.798;37.782;2023-05-15T06:24:23;3.45;;;1.40;;
33421;SDS011;19763;55.798;37.782;2023-05-15T06:26:49;2.58;;;1.40;;
33421;SDS011;19763;55.798;37.782;2023-05-15T06:29:14;1.77;;;1.20;;
33421;SDS011;19763;55.798;37.782;2023-05-15T06:31:40;5.00;;;1.60;;
33421;SDS011;19763;55.798;37.782;2023-05-15T06:34:05;2.67;;;1.20;;
33421;SDS011;19763;55.798;37.782;2023-05-15T06:36:31;1.92;;;1.30;;
33421;SDS011;19763;55.798;37.782;2023-05-15T06:38:56;2.65;;;1.23;;
33421;SDS011;19763;55.798;37.782;2023-05-15T06:41:22;4.32;;;1.33;;
33421;SDS011;19763;55.798;37.782;2023-05-15T06:43:48;1.88;;;1.25;;
33421;SDS011;19763;55.798;37.782;2023-05-15T06:46:13;3.40;;;1.30;;
33421;SDS011;19763;55.798;37.782;2023-05-15T06:48:41;3.30;;;1.33;;
33421;SDS011;19763;55.798;37.782;2023-05-15T06:51:06;3.63;;;1.40;;
33421;SDS011;19763;55.798;37.782;2023-05-15T06:53:32;2.22;;;1.20;;
33421;SDS011;19763;55.798;37.782;2023-05-15T06:55:57;3.70;;;1.27;;
33421;SDS011;19763;55.798;37.782;2023-05-15T06:58:23;3.47;;;1.20;;
33421;SDS011;19763;55.798;37.782;2023-05-15T07:00:49;4.90;;;1.10;;
33421;SDS011;19763;55.798;37.782;2023-05-15T07:03:15;9.57;;;1.40;;
33421;SDS011;19763;55.798;37.782;2023-05-15T07:05:41;1.15;;;1.10;;
33421;SDS011;19763;55.798;37.782;2023-05-15T07:08:07;1.33;;;1.10;;
33421;SDS011;19763;55.798;37.782;2023-05-15T07:10:32;2.97;;;1.60;;
33421;SDS011;19763;55.798;37.782;2023-05-15T07:12:58;1.88;;;1.48;;
33421;SDS011;19763;55.798;37.782;2023-05-15T07:15:23;2.90;;;1.20;;
33421;SDS011;19763;55.798;37.782;2023-05-15T07:17:49;3.60;;;1.33;;
33421;SDS011;19763;55.798;37.782;2023-05-15T07:20:15;2.15;;;1.10;;
33421;SDS011;19763;55.798;37.782;2023-05-15T07:22:41;3.17;;;1.40;;
33421;SDS011;19763;55.798;37.782;2023-05-15T07:25:07;2.35;;;1.20;;
33421;SDS011;19763;55.798;37.782;2023-05-15T07:27:33;2.05;;;1.20;;
33421;SDS011;19763;55.798;37.782;2023-05-15T07:29:59;2.63;;;1.23;;
33421;SDS011;19763;55.798;37.782;2023-05-15T07:32:26;2.78;;;1.33;;
33421;SDS011;19763;55.798;37.782;2023-05-15T07:34:51;3.13;;;1.42;;
33421;SDS011;19763;55.798;37.782;2023-05-15T07:37:17;2.88;;;1.50;;
33421;SDS011;19763;55.798;37.782;2023-05-15T07:39:42;2.58;;;1.20;;
33421;SDS011;19763;55.798;37.782;2023-05-15T07:42:08;4.43;;;1.38;;
33421;SDS011;19763;55.798;37.782;2023-05-15T07:44:34;2.90;;;1.40;;
33421;SDS011;19763;55.798;37.782;2023-05-15T07:46:59;1.67;;;1.38;;
33421;SDS011;19763;55.798;37.782;2023-05-15T07:49:25;4.43;;;1.60;;
33421;SDS011;19763;55.798;37.782;2023-05-15T07:51:51;1.95;;;1.55;;
33421;SDS011;19763;55.798;37.782;2023-05-15T07:54:16;4.88;;;1.30;;
33421;SDS011;19763;55.798;37.782;2023-05-15T07:56:42;1.40;;;1.23;;
33421;SDS011;19763;55.798;37.782;2023-05-15T07:59:08;6.43;;;1.40;;
33421;SDS011;19763;55.798;37.782;2023-05-15T08:01:33;2.33;;;1.35;;
33421;SDS011;19763;55.798;37.782;2023-05-15T08:03:59;2.67;;;1.00;;
33421;SDS011;19763;55.798;37.782;2023-05-15T08:06:25;2.45;;;1.13;;
33421;SDS011;19763;55.798;37.782;2023-05-15T08:08:50;5.80;;;1.30;;
33421;SDS011;19763;55.798;37.782;2023-05-15T08:11:16;1.30;;;1.13;;
33421;SDS011;19763;55.798;37.782;2023-05-15T08:13:42;2.13;;;1.45;;
33421;SDS011;19763;55.798;37.782;2023-05-15T08:16:08;1.35;;;1.20;;
33421;SDS011;19763;55.798;37.782;2023-05-15T08:18:34;2.13;;;1.10;;
33421;SDS011;19763;55.798;37.782;2023-05-15T08:20:59;1.23;;;1.13;;
33421;SDS011;19763;55.798;37.782;2023-05-15T08:23:25;7.43;;;1.48;;
33421;SDS011;19763;55.798;37.782;2023-05-15T08:25:50;5.57;;;1.60;;
33421;SDS011;19763;55.798;37.782;2023-05-15T08:28:16;1.88;;;1.38;;
33421;SDS011;19763;55.798;37.782;2023-05-15T08:30:42;2.00;;;1.10;;
33421;SDS011;19763;55.798;37.782;2023-05-15T08:33:07;1.33;;;1.20;;
33421;SDS011;19763;55.798;37.782;2023-05-15T08:35:33;2.13;;;1.33;;
33421;SDS011;19763;55.798;37.782;2023-05-15T08:37:58;2.33;;;1.00;;
33421;SDS011;19763;55.798;37.782;2023-05-15T08:40:24;1.90;;;1.50;;
33421;SDS011;19763;55.798;37.782;2023-05-15T08:42:54;1.40;;;1.30;;
33421;SDS011;19763;55.798;37.782;2023-05-15T08:45:22;3.53;;;1.65;;
33421;SDS011;19763;55.798;37.782;2023-05-15T08:47:48;2.10;;;1.33;;
33421;SDS011;19763;55.798;37.782;2023-05-15T08:50:14;1.45;;;1.15;;
33421;SDS011;19763;55.798;37.782;2023-05-15T08:52:42;1.67;;;1.02;;
33421;SDS011;19763;55.798;37.782;2023-05-15T08:55:09;1.17;;;1.08;;
33421;SDS011;19763;55.798;37.782;2023-05-15T08:57:36;2.92;;;1.23;;
33421;SDS011;19763;55.798;37.782;2023-05-15T09:00:03;1.30;;;1.20;;
33421;SDS011;19763;55.798;37.782;2023-05-15T09:02:38;2.05;;;1.08;;
33421;SDS011;19763;55.798;37.782;2023-05-15T09:05:05;5.85;;;1.20;;
33421;SDS011;19763;55.798;37.782;2023-05-15T09:07:31;3.72;;;1.13;;
33421;SDS011;19763;55.798;37.782;2023-05-15T09:09:57;1.38;;;1.00;;
33421;SDS011;19763;55.798;37.782;2023-05-15T09:12:24;1.00;;;0.98;;
33421;SDS011;19763;55.798;37.782;2023-05-15T09:14:51;2.65;;;1.20;;
33421;SDS011;19763;55.798;37.782;2023-05-15T09:17:32;2.90;;;1.20;;
33421;SDS011;19763;55.798;37.782;2023-05-15T09:19:57;1.95;;;1.17;;
33421;SDS011;19763;55.798;37.782;2023-05-15T09:22:23;2.72;;;1.20;;
33421;SDS011;19763;55.798;37.782;2023-05-15T09:24:50;1.42;;;0.98;;
33421;SDS011;19763;55.798;37.782;2023-05-15T09:27:17;3.72;;;1.20;;
33421;SDS011;19763;55.798;37.782;2023-05-15T09:29:44;3.38;;;1.67;;
33421;SDS011;19763;55.798;37.782;2023-05-15T09:32:13;1.38;;;1.27;;
33421;SDS011;19763;55.798;37.782;2023-05-15T09:34:40;2.95;;;1.02;;
33421;SDS011;19763;55.798;37.782;2023-05-15T09:37:08;2.08;;;1.48;;
33421;SDS011;19763;55.798;37.782;2023-05-15T09:39:39;2.95;;;1.52;;
33421;SDS011;19763;55.798;37.782;2023-05-15T09:42:11;2.28;;;1.20;;
33421;SDS011;19763;55.798;37.782;2023-05-15T09:44:41;2.58;;;1.17;;
33421;SDS011;19763;55.798;37.782;2023-05-15T09:47:08;4.90;;;1.20;;
33421;SDS011;19763;55.798;37.782;2023-05-15T09:49:38;4.63;;;1.20;;
33421;SDS011;19763;55.798;37.782;2023-05-15T09:52:07;1.05;;;0.95;;
33421;SDS011;19763;55.798;37.782;2023-05-15T09:54:34;2.35;;;1.05;;
33421;SDS011;19763;55.798;37.782;2023-05-15T09:57:10;3.00;;;1.70;;
33421;SDS011;19763;55.798;37.782;2023-05-15T09:59:44;3.97;;;1.77;;
33421;SDS011;19763;55.798;37.782;2023-05-15T10:02:24;2.65;;;1.48;;
33421;SDS011;19763;55.798;37.782;2023-05-15T10:04:56;2.78;;;1.55;;
33421;SDS011;19763;55.798;37.782;2023-05-15T10:07:29;2.72;;;1.00;;
33421;SDS011;19763;55.798;37.782;2023-05-15T10:10:02;1.20;;;1.10;;
33421;SDS011;19763;55.798;37.782;2023-05-15T10:12:29;3.20;;;1.30;;
33421;SDS011;19763;55.798;37.782;2023-05-15T10:14:56;4.75;;;3.80;;
33421;SDS011;19763;55.798;37.782;2023-05-15T10:17:24;19.40;;;2.28;;
33421;SDS011;19763;55.798;37.782;2023-05-15T10:19:50;2.63;;;1.20;;
33421;SDS011;19763;55.798;37.782;2023-05-15T10:22:20;6.50;;;1.50;;
33421;SDS011;19763;55.798;37.782;2023-05-15T10:24:50;1.60;;;1.33;;
33421;SDS011;19763;55.798;37.782;2023-05-15T10:27:20;1.20;;;1.10;;
33421;SDS011;19763;55.798;37.782;2023-05-15T10:29:46;2.72;;;1.38;;
33421;SDS011;19763;55.798;37.782;2023-05-15T10:32:14;2.13;;;1.10;;
33421;SDS011;19763;55.798;37.782;2023-05-15T10:34:41;1.80;;;1.05;;
33421;SDS011;19763;55.798;37.782;2023-05-15T10:37:07;2.42;;;1.20;;
33421;SDS011;19763;55.798;37.782;2023-05-15T10:39:34;2.55;;;1.40;;
33421;SDS011;19763;55.798;37.782;2023-05-15T10:42:02;3.38;;;1.23;;
33421;SDS011;19763;55.798;37.782;2023-05-15T10:44:29;3.72;;;1.30;;
33421;SDS011;19763;55.798;37.782;2023-05-15T10:46:54;2.70;;;1.00;;
33421;SDS011;19763;55.798;37.782;2023-05-15T10:49:20;6.07;;;1.55;;
33421;SDS011;19763;55.798;37.782;2023-05-15T10:51:46;1.95;;;1.23;;
33421;SDS011;19763;55.798;37.782;2023-05-15T10:54:11;3.58;;;1.50;;
33421;SDS011;19763;55.798;37.782;2023-05-15T10:56:38;1.50;;;1.40;;
33421;SDS011;19763;55.798;37.782;2023-05-15T10:59:08;2.70;;;1.30;;
33421;SDS011;19763;55.798;37.782;2023-05-15T11:01:38;4.65;;;1.20;;
33421;SDS011;19763;55.798;37.782;2023-05-15T11:06:30;2.10;;;1.30;;
33421;SDS011;19763;55.798;37.782;2023-05-15T11:14:22;2.05;;;1.33;;
33421;SDS011;19763;55.798;37.782;2023-05-15T11:19:21;2.55;;;1.23;;
33421;SDS011;19763;55.798;37.782;2023-05-15T11:24:26;1.83;;;1.17;;
33421;SDS011;19763;55.798;37.782;2023-05-15T11:27:02;3.00;;;1.20;;
33421;SDS011;19763;55.798;37.782;2023-05-15T11:29:28;1.52;;;1.08;;
33421;SDS011;19763;55.798;37.782;2023-05-15T11:31:55;4.03;;;1.27;;
33421;SDS011;19763;55.798;37.782;2023-05-15T11:34:28;2.97;;;1.40;;
33421;SDS011;19763;55.798;37.782;2023-05-15T11:36:56;3.53;;;1.20;;
33421;SDS011;19763;55.798;37.782;2023-05-15T11:39:22;3.42;;;1.55;;
33421;SDS011;19763;55.798;37.782;2023-05-15T11:41:50;1.40;;;1.30;;
33421;SDS011;19763;55.798;37.782;2023-05-15T11:44:22;1.33;;;1.20;;
33421;SDS011;19763;55.798;37.782;2023-05-15T11:46:49;1.90;;;1.23;;
33421;SDS011;19763;55.798;37.782;2023-05-15T11:49:17;1.33;;;1.23;;
33421;SDS011;19763;55.798;37.782;2023-05-15T11:51:43;2.88;;;1.17;;
33421;SDS011;19763;55.798;37.782;2023-05-15T11:54:11;2.35;;;1.30;;
33421;SDS011;19763;55.798;37.782;2023-05-15T11:56:41;2.97;;;1.30;;
33421;SDS011;19763;55.798;37.782;2023-05-15T11:59:09;3.45;;;1.50;;
33421;SDS011;19763;55.798;37.782;2023-05-15T12:01:39;2.45;;;1.50;;
33421;SDS011;19763;55.798;37.782;2023-05-15T12:04:12;2.15;;;1.25;;
33421;SDS011;19763;55.798;37.782;2023-05-15T12:06:41;1.52;;;1.20;;
33421;SDS011;19763;55.798;37.782;2023-05-15T12:09:12;2.38;;;1.38;;
33421;SDS011;19763;55.798;37.782;2023-05-15T12:11:39;1.60;;;1.40;;
33421;SDS011;19763;55.798;37.782;2023-05-15T12:14:09;1.95;;;1.30;;
33421;SDS011;19763;55.798;37.782;2023-05-15T12:16:36;4.32;;;1.20;;
33421;SDS011;19763;55.798;37.782;2023-05-15T12:19:01;3.38;;;1.35;;
33421;SDS011;19763;55.798;37.782;2023-05-15T12:21:27;1.55;;;1.45;;
33421;SDS011;19763;55.798;37.782;2023-05-15T12:23:53;2.85;;;1.20;;
33421;SDS011;19763;55.798;37.782;2023-05-15T12:26:19;5.05;;;1.27;;
33421;SDS011;19763;55.798;37.782;2023-05-15T12:28:47;1.48;;;1.10;;
33421;SDS011;19763;55.798;37.782;2023-05-15T12:31:13;1.73;;;1.40;;
33421;SDS011;19763;55.798;37.782;2023-05-15T12:33:41;1.55;;;1.00;;
33421;SDS011;19763;55.798;37.782;2023-05-15T12:36:08;3.63;;;1.60;;
33421;SDS011;19763;55.798;37.782;2023-05-15T12:38:34;1.73;;;1.50;;
33421;SDS011;19763;55.798;37.782;2023-05-15T12:41:01;5.60;;;1.92;;
33421;SDS011;19763;55.798;37.782;2023-05-15T12:43:26;6.32;;;2.45;;
33421;SDS011;19763;55.798;37.782;2023-05-15T12:45:53;2.08;;;1.55;;
33421;SDS011;19763;55.798;37.782;2023-05-15T12:48:19;3.13;;;1.60;;
33421;SDS011;19763;55.798;37.782;2023-05-15T12:50:46;1.55;;;1.45;;
33421;SDS011;19763;55.798;37.782;2023-05-15T12:53:12;1.98;;;1.55;;
33421;SDS011;19763;55.798;37.782;2023-05-15T12:55:43;3.03;;;1.60;;
33421;SDS011;19763;55.798;37.782;2023-05-15T12:58:10;3.50;;;1.50;;
33421;SDS011;19763;55.798;37.782;2023-05-15T13:00:38;2.78;;;1.75;;
33421;SDS011;19763;55.798;37.782;2023-05-15T13:03:07;4.38;;;1.60;;
33421;SDS011;19763;55.798;37.782;2023-05-15T13:05:35;2.33;;;1.75;;
33421;SDS011;19763;55.798;37.782;2023-05-15T13:08:02;4.32;;;1.40;;
33421;SDS011;19763;55.798;37.782;2023-05-15T13:10:33;1.70;;;1.60;;
33421;SDS011;19763;55.798;37.782;2023-05-15T13:13:01;4.13;;;1.50;;
33421;SDS011;19763;55.798;37.782;2023-05-15T13:15:35;4.65;;;1.75;;
33421;SDS011;19763;55.798;37.782;2023-05-15T13:18:05;4.40;;;1.60;;
33421;SDS011;19763;55.798;37.782;2023-05-15T13:20:34;3.45;;;1.63;;
33421;SDS011;19763;55.798;37.782;2023-05-15T13:23:05;2.38;;;1.60;;
33421;SDS011;19763;55.798;37.782;2023-05-15T13:25:31;1.98;;;1.50;;
33421;SDS011;19763;55.798;37.782;2023-05-15T13:27:58;1.95;;;1.60;;
33421;SDS011;19763;55.798;37.782;2023-05-15T13:30:26;3.00;;;1.70;;
33421;SDS011;19763;55.798;37.782;2023-05-15T13:32:52;4.38;;;1.85;;
33421;SDS011;19763;55.798;37.782;2023-05-15T13:35:18;2.15;;;1.60;;
33421;SDS011;19763;55.798;37.782;2023-05-15T13:37:44;5.25;;;1.70;;
33421;SDS011;19763;55.798;37.782;2023-05-15T13:40:10;1.20;;;1.08;;
33421;SDS011;19763;55.798;37.782;2023-05-15T13:42:39;3.45;;;1.58;;
33421;SDS011;19763;55.798;37.782;2023-05-15T13:45:06;2.08;;;1.40;;
33421;SDS011;19763;55.798;37.782;2023-05-15T13:47:33;3.08;;;1.35;;
33421;SDS011;19763;55.798;37.782;2023-05-15T13:49:58;2.63;;;1.50;;
33421;SDS011;19763;55.798;37.782;2023-05-15T13:52:25;3.85;;;1.50;;
33421;SDS011;19763;55.798;37.782;2023-05-15T13:54:51;3.63;;;1.70;;
33421;SDS011;19763;55.798;37.782;2023-05-15T13:57:17;4.22;;;1.80;;
33421;SDS011;19763;55.798;37.782;2023-05-15T13:59:43;2.65;;;2.28;;
33421;SDS011;19763;55.798;37.782;2023-05-15T14:02:09;5.65;;;1.80;;
33421;SDS011;19763;55.798;37.782;2023-05-15T14:04:35;5.55;;;1.88;;
33421;SDS011;19763;55.798;37.782;2023-05-15T14:07:01;3.22;;;1.60;;
33421;SDS011;19763;55.798;37.782;2023-05-15T14:09:26;1.25;;;1.10;;
33421;SDS011;19763;55.798;37.782;2023-05-15T14:11:52;1.80;;;1.40;;
33421;SDS011;19763;55.798;37.782;2023-05-15T14:14:17;1.70;;;1.60;;
33421;SDS011;19763;55.798;37.782;2023-05-15T14:16:43;2.53;;;1.77;;
33421;SDS011;19763;55.798;37.782;2023-05-15T14:19:09;2.75;;;1.50;;
33421;SDS011;19763;55.798;37.782;2023-05-15T14:21:34;3.40;;;1.85;;
33421;SDS011;19763;55.798;37.782;2023-05-15T14:24:00;4.32;;;1.90;;
33421;SDS011;19763;55.798;37.782;2023-05-15T14:26:28;1.80;;;1.55;;
33421;SDS011;19763;55.798;37.782;2023-05-15T14:28:54;2.33;;;1.80;;
33421;SDS011;19763;55.798;37.782;2023-05-15T14:31:20;1.63;;;1.30;;
33421;SDS011;19763;55.798;37.782;2023-05-15T14:33:46;2.72;;;1.20;;
33421;SDS011;19763;55.798;37.782;2023-05-15T14:36:11;1.55;;;1.23;;
33421;SDS011;19763;55.798;37.782;2023-05-15T14:38:37;1.83;;;1.17;;
33421;SDS011;19763;55.798;37.782;2023-05-15T14:41:02;3.97;;;1.50;;
33421;SDS011;19763;55.798;37.782;2023-05-15T14:43:28;4.40;;;1.40;;
33421;SDS011;19763;55.798;37.782;2023-05-15T14:45:54;2.58;;;1.60;;
33421;SDS011;19763;55.798;37.782;2023-05-15T14:48:19;3.58;;;1.40;;
33421;SDS011;19763;55.798;37.782;2023-05-15T14:50:45;1.42;;;1.33;;
33421;SDS011;19763;55.798;37.782;2023-05-15T14:53:11;2.60;;;1.40;;
33421;SDS011;19763;55.798;37.782;2023-05-15T14:55:36;2.17;;;1.48;;
33421;SDS011;19763;55.798;37.782;2023-05-15T14:58:02;3.75;;;1.15;;
33421;SDS011;19763;55.798;37.782;2023-05-15T15:00:27;5.28;;;1.40;;
33421;SDS011;19763;55.798;37.782;2023-05-15T15:02:53;2.47;;;1.40;;